createdAt,value
2023-03-21T00:04:48.449Z,38.53
2023-03-21T00:09:59.097Z,43.17
2023-03-21T00:15:10.554Z,38.47
2023-03-21T00:20:15.205Z,40.63
2023-03-21T00:25:18.564Z,44.80
2023-03-21T00:30:22.761Z,37.53
2023-03-21T00:35:57.550Z,38.72
2023-03-21T00:40:53.896Z,36.92
2023-03-21T00:45:59.295Z,36.17
2023-03-21T00:51:03.332Z,37.20
2023-03-21T00:56:06.852Z,35.95
2023-03-21T01:01:10.515Z,35.13
2023-03-21T01:06:14.245Z,38.75
2023-03-21T01:11:21.313Z,42.67
2023-03-21T01:16:25.881Z,36.80
2023-03-21T01:21:29.447Z,37.22
2023-03-21T01:26:33.356Z,37.70
2023-03-21T01:31:36.921Z,38.30
2023-03-21T01:36:40.145Z,37.95
2023-03-21T01:41:48.690Z,35.95
2023-03-21T01:47:13.027Z,40.30
2023-03-21T01:52:40.777Z,36.38
2023-03-21T01:58:04.982Z,36.30
2023-03-21T02:03:35.075Z,34.22
2023-03-21T02:08:59.194Z,33.88
2023-03-21T02:14:06.790Z,31.40
2023-03-21T02:19:41.650Z,32.10
2023-03-21T02:25:22.633Z,28.88
2023-03-21T02:31:05.876Z,29.13
2023-03-21T02:36:14.363Z,27.65
2023-03-21T02:41:50.255Z,24.70
2023-03-21T02:47:35.488Z,25.67
2023-03-21T02:52:45.881Z,27.00
2023-03-21T02:57:52.508Z,28.27
2023-03-21T03:03:08.175Z,28.93
2023-03-21T03:08:53.050Z,21.57
2023-03-21T03:14:42.055Z,19.60
2023-03-21T03:20:16.582Z,19.05
2023-03-21T03:25:41.914Z,15.27
2023-03-21T03:31:07.669Z,20.00
2023-03-21T03:36:30.895Z,14.80
2023-03-21T03:42:27.566Z,16.02
2023-03-21T03:47:56.879Z,14.82
2023-03-21T03:53:35.551Z,14.98
2023-03-21T03:58:45.807Z,13.75
2023-03-21T04:04:03.750Z,13.48
2023-03-21T04:09:21.898Z,15.73
2023-03-21T04:14:42.028Z,15.32
2023-03-21T04:19:48.090Z,14.15
2023-03-21T04:24:51.665Z,16.75
2023-03-21T04:29:56.446Z,14.95
2023-03-21T04:35:23.390Z,13.60
2023-03-21T04:40:27.379Z,13.27
2023-03-21T04:45:31.965Z,15.50
2023-03-21T04:50:37.262Z,14.10
2023-03-21T04:55:40.579Z,14.27
2023-03-21T05:00:43.716Z,13.43
2023-03-21T05:05:48.208Z,14.70
2023-03-21T05:10:51.736Z,14.73
2023-03-21T05:15:56.910Z,13.45
2023-03-21T05:21:01.092Z,11.15
2023-03-21T05:26:08.855Z,12.60
2023-03-21T05:31:25.843Z,7.53
2023-03-21T05:36:40.219Z,7.40
2023-03-21T05:41:46.334Z,8.30
2023-03-21T05:46:50.267Z,9.45
2023-03-21T05:51:56.567Z,8.13
2023-03-21T05:57:01.660Z,7.80
2023-03-21T06:02:24.373Z,7.22
2023-03-21T06:07:30.177Z,6.00
2023-03-21T06:12:33.560Z,6.05
2023-03-21T06:17:55.030Z,7.45
2023-03-21T06:22:59.146Z,6.60
2023-03-21T06:28:03.127Z,7.85
2023-03-21T06:33:07.558Z,7.00
2023-03-21T06:38:12.060Z,4.10
2023-03-21T06:43:16.968Z,4.05
2023-03-21T06:48:21.084Z,5.38
2023-03-21T06:53:30.398Z,4.03
2023-03-21T06:58:59.151Z,4.45
2023-03-21T07:04:21.461Z,4.15
2023-03-21T07:09:28.483Z,5.22
2023-03-21T07:14:36.685Z,5.25
2023-03-21T07:19:40.534Z,4.57
2023-03-21T07:24:47.268Z,6.65
2023-03-21T07:29:52.765Z,9.90
2023-03-21T07:34:56.961Z,7.45
2023-03-21T07:40:01.246Z,5.20
2023-03-21T07:45:05.899Z,5.82
2023-03-21T07:50:11.147Z,6.25
2023-03-21T07:55:15.060Z,5.05
2023-03-21T08:00:23.336Z,6.38
2023-03-21T08:05:30.434Z,5.28
2023-03-21T08:10:34.665Z,6.45
2023-03-21T08:15:38.381Z,6.35
2023-03-21T08:20:42.384Z,5.97
2023-03-21T08:25:47.205Z,5.13
2023-03-21T08:30:51.539Z,4.63
2023-03-21T08:35:55.345Z,6.28
2023-03-21T08:41:00.738Z,4.68
2023-03-21T08:46:04.748Z,4.43
2023-03-21T08:51:08.740Z,6.13
2023-03-21T08:56:13.122Z,6.32
2023-03-21T09:01:16.450Z,5.38
2023-03-21T09:06:20.553Z,5.00
2023-03-21T09:11:24.120Z,4.60
2023-03-21T09:16:29.964Z,5.65
2023-03-21T09:21:34.026Z,6.80
2023-03-21T09:26:37.652Z,5.85
2023-03-21T09:37:21.475Z,5.15
2023-03-21T09:42:43.595Z,7.07
2023-03-21T09:47:57.412Z,7.57
2023-03-21T09:53:10.477Z,4.25
2023-03-21T09:58:53.237Z,4.65
2023-03-21T10:04:00.648Z,4.72
2023-03-21T10:09:07.979Z,4.68
2023-03-21T10:14:19.894Z,8.63
2023-03-21T10:19:23.828Z,6.43
2023-03-21T10:24:29.883Z,7.28
2023-03-21T10:29:44.047Z,6.97
2023-03-21T10:34:57.728Z,6.55
2023-03-21T10:40:03.639Z,5.95
2023-03-21T10:45:16.111Z,8.70
2023-03-21T10:50:25.938Z,6.45
2023-03-21T10:55:34.757Z,5.38
2023-03-21T11:00:41.624Z,10.65
2023-03-21T11:11:08.326Z,6.90
2023-03-21T11:16:19.895Z,6.05
2023-03-21T11:21:29.695Z,5.78
2023-03-21T11:26:37.012Z,4.50
2023-03-21T11:31:41.520Z,5.05
2023-03-21T11:36:51.179Z,6.57
2023-03-21T11:41:54.751Z,6.38
2023-03-21T11:46:59.125Z,6.35
2023-03-21T11:52:24.665Z,6.18
2023-03-21T11:57:42.539Z,9.13
2023-03-21T12:03:22.521Z,9.38
2023-03-21T12:08:38.600Z,7.65
2023-03-21T12:13:56.284Z,8.55
2023-03-21T12:19:29.116Z,6.63
2023-03-21T12:24:41.378Z,6.72
2023-03-21T12:29:54.204Z,7.93
2023-03-21T12:35:39.728Z,7.10
2023-03-21T12:41:11.854Z,8.75
2023-03-21T12:46:24.288Z,9.35
2023-03-21T12:51:33.038Z,7.68
2023-03-21T12:57:07.706Z,6.40
2023-03-21T13:02:32.117Z,10.10
2023-03-21T13:07:40.140Z,8.75
2023-03-21T13:12:51.649Z,7.88
2023-03-21T13:18:10.344Z,8.27
2023-03-21T13:23:14.854Z,9.65
2023-03-21T13:28:27.809Z,9.02
2023-03-21T13:33:33.349Z,8.27
2023-03-21T13:38:40.427Z,8.82
2023-03-21T13:43:56.046Z,7.75
2023-03-21T13:49:00.462Z,6.25
2023-03-21T13:54:07.573Z,6.40
2023-03-21T13:59:12.859Z,5.15
2023-03-21T14:04:32.212Z,6.20
2023-03-21T14:09:50.097Z,5.78
2023-03-21T14:15:14.146Z,7.50
2023-03-21T14:20:26.683Z,8.18
2023-03-21T14:25:40.954Z,8.43
2023-03-21T14:30:56.534Z,6.85
2023-03-21T14:36:04.831Z,7.68
2023-03-21T14:41:24.050Z,7.28
2023-03-21T14:46:27.958Z,7.35
2023-03-21T14:51:32.338Z,6.85
2023-03-21T14:56:37.752Z,9.35
2023-03-21T15:01:41.890Z,9.00
2023-03-21T15:06:54.207Z,9.25
2023-03-21T15:11:58.902Z,12.13
2023-03-21T15:17:05.363Z,9.13
2023-03-21T15:22:18.030Z,12.60
2023-03-21T15:27:25.938Z,16.85
2023-03-21T15:32:30.149Z,12.07
2023-03-21T15:37:36.913Z,8.70
2023-03-21T15:42:41.850Z,9.95
2023-03-21T15:47:59.965Z,8.50
2023-03-21T15:53:13.482Z,15.27
2023-03-21T15:58:23.866Z,9.77
2023-03-21T16:03:36.914Z,13.27
2023-03-21T16:08:54.035Z,17.80
2023-03-21T16:13:57.341Z,17.52
2023-03-21T16:19:02.078Z,17.17
2023-03-21T16:24:11.536Z,22.17
2023-03-21T16:29:16.567Z,16.35
2023-03-21T16:34:19.651Z,18.85
2023-03-21T16:39:26.573Z,16.50
2023-03-21T16:44:30.873Z,18.42
2023-03-21T16:49:33.995Z,17.10
2023-03-21T16:54:37.789Z,16.20
2023-03-21T16:59:42.127Z,15.65
2023-03-21T17:04:46.521Z,18.73
2023-03-21T17:09:50.170Z,20.30
2023-03-21T17:14:53.787Z,20.20
2023-03-21T17:19:57.291Z,18.77
2023-03-21T17:25:03.424Z,20.33
2023-03-21T17:30:21.681Z,18.77
2023-03-21T17:35:27.097Z,17.95
2023-03-21T17:40:32.922Z,14.30
2023-03-21T17:45:37.042Z,16.30
2023-03-21T17:50:41.146Z,20.85
2023-03-21T17:55:44.940Z,20.92
2023-03-21T18:00:48.136Z,26.30
2023-03-21T18:05:51.935Z,23.95
2023-03-21T18:10:55.068Z,29.58
2023-03-21T18:15:59.766Z,23.77
2023-03-21T18:21:03.994Z,22.17
2023-03-21T18:26:09.924Z,24.77
2023-03-21T18:31:20.086Z,24.15
2023-03-21T18:36:27.875Z,22.63
2023-03-21T18:41:32.486Z,26.00
2023-03-21T18:46:37.687Z,32.10
2023-03-21T18:51:41.313Z,22.98
2023-03-21T18:57:27.705Z,28.42
2023-03-21T19:02:14.263Z,26.27
2023-03-21T19:07:18.136Z,26.57
2023-03-21T19:12:21.780Z,28.50
2023-03-21T19:22:48.146Z,35.85
2023-03-21T19:27:52.313Z,34.17
2023-03-21T19:32:56.361Z,36.15
2023-03-21T19:37:59.489Z,36.28
2023-03-21T19:43:21.454Z,35.97
2023-03-21T19:48:28.157Z,31.15
2023-03-21T19:53:31.910Z,35.85
2023-03-21T19:58:35.718Z,37.63
2023-03-21T20:03:39.414Z,33.90
2023-03-21T20:09:13.637Z,31.10
2023-03-21T20:14:07.384Z,34.00
2023-03-21T20:19:13.703Z,37.67
2023-03-21T20:24:18.161Z,24.20
2023-03-21T20:34:47.092Z,26.00
2023-03-21T20:39:50.260Z,29.00
2023-03-21T20:44:58.972Z,25.23
2023-03-21T20:50:03.558Z,25.05
2023-03-21T20:55:09.473Z,28.40
2023-03-21T21:00:15.385Z,27.02
2023-03-21T21:05:35.437Z,29.73
2023-03-21T21:11:00.517Z,25.13
2023-03-21T21:16:05.396Z,29.73
2023-03-21T21:21:09.385Z,33.58
2023-03-21T21:26:13.215Z,29.75
2023-03-21T21:31:18.978Z,31.33
2023-03-21T21:36:23.025Z,34.50
2023-03-21T21:41:26.105Z,29.70
2023-03-21T21:46:29.250Z,28.67
2023-03-21T21:51:34.359Z,25.15
2023-03-21T21:56:38.279Z,31.30
2023-03-21T22:01:42.808Z,31.85
2023-03-21T22:06:48.013Z,27.20
2023-03-21T22:11:51.932Z,26.70
2023-03-21T22:16:56.653Z,23.63
2023-03-21T22:22:00.786Z,27.10
2023-03-21T22:27:04.753Z,24.92
2023-03-21T22:32:08.390Z,25.70
2023-03-21T22:37:12.945Z,30.05
2023-03-21T22:42:17.323Z,20.75
2023-03-21T22:47:21.614Z,25.92
2023-03-21T22:52:26.511Z,20.25
2023-03-21T22:57:30.078Z,24.17
2023-03-21T23:02:34.099Z,15.68
2023-03-21T23:07:37.663Z,15.73
2023-03-21T23:12:42.273Z,17.50
2023-03-21T23:17:46.269Z,13.45
2023-03-21T23:22:50.512Z,14.88
2023-03-21T23:27:54.616Z,14.18
2023-03-21T23:32:58.575Z,15.57
2023-03-21T23:38:02.807Z,16.10
2023-03-21T23:43:06.709Z,16.73
2023-03-21T23:48:10.575Z,16.80
2023-03-21T23:53:14.173Z,16.30
2023-03-21T23:58:17.808Z,19.58
